sensor_id;sensor_type;location;lat;lon;timestamp;P1;durP1;ratioP1;P2;durP2;ratioP2
34204;SDS011;20471;49.680;20.074;2023-04-01T00:01:05;1.80;;;1.20;;
34204;SDS011;20471;49.680;20.074;2023-04-01T00:03:34;1.10;;;0.90;;
34204;SDS011;20471;49.680;20.074;2023-04-01T00:06:03;2.70;;;0.90;;
34204;SDS011;20471;49.680;20.074;2023-04-01T00:08:31;4.60;;;1.20;;
34204;SDS011;20471;49.680;20.074;2023-04-01T00:11:00;2.90;;;1.00;;
34204;SDS011;20471;49.680;20.074;2023-04-01T00:13:28;4.30;;;0.90;;
34204;SDS011;20471;49.680;20.074;2023-04-01T00:15:56;2.10;;;0.80;;
34204;SDS011;20471;49.680;20.074;2023-04-01T00:18:24;1.60;;;0.90;;
34204;SDS011;20471;49.680;20.074;2023-04-01T00:20:52;2.30;;;1.10;;
34204;SDS011;20471;49.680;20.074;2023-04-01T00:23:21;2.90;;;1.10;;
34204;SDS011;20471;49.680;20.074;2023-04-01T00:25:49;2.30;;;1.00;;
34204;SDS011;20471;49.680;20.074;2023-04-01T00:28:17;4.30;;;1.10;;
34204;SDS011;20471;49.680;20.074;2023-04-01T00:30:46;6.30;;;1.40;;
34204;SDS011;20471;49.680;20.074;2023-04-01T00:33:15;2.30;;;0.80;;
34204;SDS011;20471;49.680;20.074;2023-04-01T00:35:44;2.80;;;1.10;;
34204;SDS011;20471;49.680;20.074;2023-04-01T00:38:12;5.70;;;1.20;;
34204;SDS011;20471;49.680;20.074;2023-04-01T00:40:41;2.60;;;1.20;;
34204;SDS011;20471;49.680;20.074;2023-04-01T00:43:20;4.40;;;1.80;;
34204;SDS011;20471;49.680;20.074;2023-04-01T00:45:48;2.20;;;1.20;;
34204;SDS011;20471;49.680;20.074;2023-04-01T00:48:18;2.10;;;1.10;;
34204;SDS011;20471;49.680;20.074;2023-04-01T00:50:52;2.40;;;1.20;;
34204;SDS011;20471;49.680;20.074;2023-04-01T00:53:25;1.80;;;1.30;;
34204;SDS011;20471;49.680;20.074;2023-04-01T00:55:56;3.70;;;1.50;;
34204;SDS011;20471;49.680;20.074;2023-04-01T00:58:29;2.20;;;1.30;;
34204;SDS011;20471;49.680;20.074;2023-04-01T01:01:01;2.10;;;1.30;;
34204;SDS011;20471;49.680;20.074;2023-04-01T01:03:29;5.90;;;1.50;;
34204;SDS011;20471;49.680;20.074;2023-04-01T01:11:29;3.10;;;1.50;;
34204;SDS011;20471;49.680;20.074;2023-04-01T01:17:12;4.00;;;1.30;;
34204;SDS011;20471;49.680;20.074;2023-04-01T01:20:22;2.70;;;1.50;;
34204;SDS011;20471;49.680;20.074;2023-04-01T01:32:07;4.50;;;2.10;;
34204;SDS011;20471;49.680;20.074;2023-04-01T01:35:16;5.50;;;1.90;;
34204;SDS011;20471;49.680;20.074;2023-04-01T01:38:05;3.50;;;2.10;;
34204;SDS011;20471;49.680;20.074;2023-04-01T01:40:38;7.40;;;3.10;;
34204;SDS011;20471;49.680;20.074;2023-04-01T01:43:10;8.70;;;3.10;;
34204;SDS011;20471;49.680;20.074;2023-04-01T01:45:52;7.20;;;2.90;;
34204;SDS011;20471;49.680;20.074;2023-04-01T01:48:23;5.50;;;2.80;;
34204;SDS011;20471;49.680;20.074;2023-04-01T01:50:54;7.70;;;3.40;;
34204;SDS011;20471;49.680;20.074;2023-04-01T01:53:22;6.80;;;3.00;;
34204;SDS011;20471;49.680;20.074;2023-04-01T01:55:50;6.90;;;2.70;;
34204;SDS011;20471;49.680;20.074;2023-04-01T01:58:32;5.30;;;2.70;;
34204;SDS011;20471;49.680;20.074;2023-04-01T02:01:08;5.10;;;2.40;;
34204;SDS011;20471;49.680;20.074;2023-04-01T02:03:41;7.20;;;2.70;;
34204;SDS011;20471;49.680;20.074;2023-04-01T02:06:14;7.30;;;3.40;;
34204;SDS011;20471;49.680;20.074;2023-04-01T02:08:47;5.00;;;2.80;;
34204;SDS011;20471;49.680;20.074;2023-04-01T02:11:22;6.40;;;3.40;;
34204;SDS011;20471;49.680;20.074;2023-04-01T02:13:56;6.00;;;2.90;;
34204;SDS011;20471;49.680;20.074;2023-04-01T02:16:44;7.40;;;3.60;;
34204;SDS011;20471;49.680;20.074;2023-04-01T02:19:13;7.10;;;3.70;;
34204;SDS011;20471;49.680;20.074;2023-04-01T02:21:49;8.00;;;3.50;;
34204;SDS011;20471;49.680;20.074;2023-04-01T02:24:21;9.00;;;3.50;;
34204;SDS011;20471;49.680;20.074;2023-04-01T02:26:52;6.40;;;2.90;;
34204;SDS011;20471;49.680;20.074;2023-04-01T02:29:21;5.90;;;2.80;;
34204;SDS011;20471;49.680;20.074;2023-04-01T02:31:52;5.70;;;2.80;;
34204;SDS011;20471;49.680;20.074;2023-04-01T02:34:22;7.00;;;3.20;;
34204;SDS011;20471;49.680;20.074;2023-04-01T02:36:51;8.10;;;3.00;;
34204;SDS011;20471;49.680;20.074;2023-04-01T02:39:20;8.40;;;3.40;;
34204;SDS011;20471;49.680;20.074;2023-04-01T02:41:49;6.80;;;3.40;;
34204;SDS011;20471;49.680;20.074;2023-04-01T02:44:17;5.10;;;2.80;;
34204;SDS011;20471;49.680;20.074;2023-04-01T02:46:45;5.70;;;3.00;;
34204;SDS011;20471;49.680;20.074;2023-04-01T02:49:13;5.00;;;2.80;;
34204;SDS011;20471;49.680;20.074;2023-04-01T02:51:41;5.30;;;2.80;;
34204;SDS011;20471;49.680;20.074;2023-04-01T02:54:09;5.40;;;2.90;;
34204;SDS011;20471;49.680;20.074;2023-04-01T02:56:37;4.00;;;2.80;;
34204;SDS011;20471;49.680;20.074;2023-04-01T02:59:05;4.60;;;2.70;;
34204;SDS011;20471;49.680;20.074;2023-04-01T03:01:33;4.80;;;2.70;;
34204;SDS011;20471;49.680;20.074;2023-04-01T03:04:01;4.70;;;2.90;;
34204;SDS011;20471;49.680;20.074;2023-04-01T03:06:30;7.00;;;2.80;;
34204;SDS011;20471;49.680;20.074;2023-04-01T03:08:58;3.70;;;2.00;;
34204;SDS011;20471;49.680;20.074;2023-04-01T03:11:26;3.40;;;2.30;;
34204;SDS011;20471;49.680;20.074;2023-04-01T03:13:54;6.00;;;2.40;;
34204;SDS011;20471;49.680;20.074;2023-04-01T03:16:23;3.20;;;2.10;;
34204;SDS011;20471;49.680;20.074;2023-04-01T03:18:51;6.00;;;2.70;;
34204;SDS011;20471;49.680;20.074;2023-04-01T03:21:21;3.70;;;2.60;;
34204;SDS011;20471;49.680;20.074;2023-04-01T03:23:50;3.60;;;2.40;;
34204;SDS011;20471;49.680;20.074;2023-04-01T03:26:19;2.70;;;2.20;;
34204;SDS011;20471;49.680;20.074;2023-04-01T03:28:47;5.30;;;2.40;;
34204;SDS011;20471;49.680;20.074;2023-04-01T03:31:16;4.10;;;2.50;;
34204;SDS011;20471;49.680;20.074;2023-04-01T03:33:44;2.40;;;2.10;;
34204;SDS011;20471;49.680;20.074;2023-04-01T03:36:12;3.10;;;2.50;;
34204;SDS011;20471;49.680;20.074;2023-04-01T03:38:41;3.70;;;2.40;;
34204;SDS011;20471;49.680;20.074;2023-04-01T03:41:16;3.40;;;2.50;;
34204;SDS011;20471;49.680;20.074;2023-04-01T03:43:45;4.30;;;2.60;;
34204;SDS011;20471;49.680;20.074;2023-04-01T03:46:16;4.70;;;2.40;;
34204;SDS011;20471;49.680;20.074;2023-04-01T03:48:46;4.30;;;2.50;;
34204;SDS011;20471;49.680;20.074;2023-04-01T03:51:14;4.80;;;2.30;;
34204;SDS011;20471;49.680;20.074;2023-04-01T03:53:42;3.80;;;2.30;;
34204;SDS011;20471;49.680;20.074;2023-04-01T03:56:10;3.70;;;2.30;;
34204;SDS011;20471;49.680;20.074;2023-04-01T03:58:38;3.50;;;2.00;;
34204;SDS011;20471;49.680;20.074;2023-04-01T04:01:17;5.00;;;2.80;;
34204;SDS011;20471;49.680;20.074;2023-04-01T04:03:48;5.30;;;2.20;;
34204;SDS011;20471;49.680;20.074;2023-04-01T04:06:17;7.80;;;2.50;;
34204;SDS011;20471;49.680;20.074;2023-04-01T04:08:46;3.70;;;2.10;;
34204;SDS011;20471;49.680;20.074;2023-04-01T04:11:15;4.60;;;2.90;;
34204;SDS011;20471;49.680;20.074;2023-04-01T04:13:43;3.00;;;2.00;;
34204;SDS011;20471;49.680;20.074;2023-04-01T04:16:11;3.80;;;1.50;;
34204;SDS011;20471;49.680;20.074;2023-04-01T04:18:39;5.50;;;1.80;;
34204;SDS011;20471;49.680;20.074;2023-04-01T04:21:10;4.70;;;1.70;;
34204;SDS011;20471;49.680;20.074;2023-04-01T04:23:40;5.10;;;1.80;;
34204;SDS011;20471;49.680;20.074;2023-04-01T04:26:10;5.90;;;2.00;;
34204;SDS011;20471;49.680;20.074;2023-04-01T04:28:40;2.20;;;1.60;;
34204;SDS011;20471;49.680;20.074;2023-04-01T04:31:08;1.70;;;1.40;;
34204;SDS011;20471;49.680;20.074;2023-04-01T04:33:37;2.90;;;1.60;;
34204;SDS011;20471;49.680;20.074;2023-04-01T04:36:05;3.40;;;1.80;;
34204;SDS011;20471;49.680;20.074;2023-04-01T04:38:33;4.90;;;1.80;;
34204;SDS011;20471;49.680;20.074;2023-04-01T04:41:01;3.40;;;1.50;;
34204;SDS011;20471;49.680;20.074;2023-04-01T04:43:29;4.20;;;1.90;;
34204;SDS011;20471;49.680;20.074;2023-04-01T04:45:57;4.80;;;2.40;;
34204;SDS011;20471;49.680;20.074;2023-04-01T04:48:25;3.60;;;2.40;;
34204;SDS011;20471;49.680;20.074;2023-04-01T04:50:53;3.90;;;2.70;;
34204;SDS011;20471;49.680;20.074;2023-04-01T04:53:21;6.20;;;3.40;;
34204;SDS011;20471;49.680;20.074;2023-04-01T04:55:50;5.20;;;3.50;;
34204;SDS011;20471;49.680;20.074;2023-04-01T04:58:18;5.90;;;3.90;;
34204;SDS011;20471;49.680;20.074;2023-04-01T05:00:46;7.10;;;4.00;;
34204;SDS011;20471;49.680;20.074;2023-04-01T05:03:15;12.60;;;5.90;;
34204;SDS011;20471;49.680;20.074;2023-04-01T05:05:51;12.70;;;8.70;;
34204;SDS011;20471;49.680;20.074;2023-04-01T05:08:20;15.40;;;9.20;;
34204;SDS011;20471;49.680;20.074;2023-04-01T05:10:48;16.50;;;10.30;;
34204;SDS011;20471;49.680;20.074;2023-04-01T05:13:16;45.60;;;19.40;;
34204;SDS011;20471;49.680;20.074;2023-04-01T05:15:45;43.80;;;20.30;;
34204;SDS011;20471;49.680;20.074;2023-04-01T05:18:13;47.30;;;19.20;;
34204;SDS011;20471;49.680;20.074;2023-04-01T05:20:51;40.30;;;19.40;;
34204;SDS011;20471;49.680;20.074;2023-04-01T05:23:20;40.90;;;18.00;;
34204;SDS011;20471;49.680;20.074;2023-04-01T05:25:50;24.00;;;11.90;;
34204;SDS011;20471;49.680;20.074;2023-04-01T05:28:19;28.40;;;13.30;;
34204;SDS011;20471;49.680;20.074;2023-04-01T05:30:47;25.90;;;11.60;;
34204;SDS011;20471;49.680;20.074;2023-04-01T05:33:16;15.90;;;7.90;;
34204;SDS011;20471;49.680;20.074;2023-04-01T05:35:44;12.90;;;7.40;;
34204;SDS011;20471;49.680;20.074;2023-04-01T05:38:12;12.50;;;6.70;;
34204;SDS011;20471;49.680;20.074;2023-04-01T05:40:41;11.50;;;5.80;;
34204;SDS011;20471;49.680;20.074;2023-04-01T05:43:09;11.40;;;6.30;;
34204;SDS011;20471;49.680;20.074;2023-04-01T05:45:37;10.30;;;6.00;;
34204;SDS011;20471;49.680;20.074;2023-04-01T05:48:05;16.70;;;7.10;;
34204;SDS011;20471;49.680;20.074;2023-04-01T05:50:33;13.50;;;6.60;;
34204;SDS011;20471;49.680;20.074;2023-04-01T05:53:01;17.60;;;10.60;;
34204;SDS011;20471;49.680;20.074;2023-04-01T05:55:29;18.70;;;10.80;;
34204;SDS011;20471;49.680;20.074;2023-04-01T05:57:58;19.10;;;11.50;;
34204;SDS011;20471;49.680;20.074;2023-04-01T06:00:26;23.80;;;14.10;;
34204;SDS011;20471;49.680;20.074;2023-04-01T06:02:54;19.90;;;12.60;;
34204;SDS011;20471;49.680;20.074;2023-04-01T06:05:23;15.00;;;10.30;;
34204;SDS011;20471;49.680;20.074;2023-04-01T06:07:58;15.90;;;11.40;;
34204;SDS011;20471;49.680;20.074;2023-04-01T06:10:49;17.40;;;11.60;;
34204;SDS011;20471;49.680;20.074;2023-04-01T06:32:52;10.30;;;6.60;;
34204;SDS011;20471;49.680;20.074;2023-04-01T06:35:51;8.40;;;5.50;;
34204;SDS011;20471;49.680;20.074;2023-04-01T06:58:02;10.00;;;5.60;;
34204;SDS011;20471;49.680;20.074;2023-04-01T07:00:37;11.40;;;5.30;;
34204;SDS011;20471;49.680;20.074;2023-04-01T07:06:04;9.90;;;5.00;;
34204;SDS011;20471;49.680;20.074;2023-04-01T07:08:38;8.20;;;4.80;;
34204;SDS011;20471;49.680;20.074;2023-04-01T07:11:10;11.90;;;5.10;;
34204;SDS011;20471;49.680;20.074;2023-04-01T07:14:03;8.30;;;4.20;;
34204;SDS011;20471;49.680;20.074;2023-04-01T07:16:42;6.90;;;3.30;;
34204;SDS011;20471;49.680;20.074;2023-04-01T07:21:51;5.80;;;3.30;;
34204;SDS011;20471;49.680;20.074;2023-04-01T07:24:29;7.70;;;3.80;;
34204;SDS011;20471;49.680;20.074;2023-04-01T07:27:02;5.30;;;2.80;;
34204;SDS011;20471;49.680;20.074;2023-04-01T07:29:31;7.60;;;2.60;;
34204;SDS011;20471;49.680;20.074;2023-04-01T07:35:20;5.40;;;2.90;;
34204;SDS011;20471;49.680;20.074;2023-04-01T07:40:40;5.20;;;2.60;;
34204;SDS011;20471;49.680;20.074;2023-04-01T07:54:13;5.20;;;2.60;;
34204;SDS011;20471;49.680;20.074;2023-04-01T07:57:03;5.30;;;3.00;;
34204;SDS011;20471;49.680;20.074;2023-04-01T08:05:19;3.80;;;2.20;;
34204;SDS011;20471;49.680;20.074;2023-04-01T08:22:03;3.10;;;2.30;;
34204;SDS011;20471;49.680;20.074;2023-04-01T08:24:43;4.10;;;2.20;;
34204;SDS011;20471;49.680;20.074;2023-04-01T08:30:21;7.60;;;3.00;;
34204;SDS011;20471;49.680;20.074;2023-04-01T08:32:57;5.10;;;2.80;;
34204;SDS011;20471;49.680;20.074;2023-04-01T08:35:29;4.30;;;2.30;;
34204;SDS011;20471;49.680;20.074;2023-04-01T08:38:15;4.30;;;2.50;;
34204;SDS011;20471;49.680;20.074;2023-04-01T08:41:19;6.80;;;3.40;;
34204;SDS011;20471;49.680;20.074;2023-04-01T08:56:09;4.70;;;2.00;;
34204;SDS011;20471;49.680;20.074;2023-04-01T08:59:12;2.80;;;1.70;;
34204;SDS011;20471;49.680;20.074;2023-04-01T09:10:24;4.70;;;1.90;;
34204;SDS011;20471;49.680;20.074;2023-04-01T09:15:47;4.60;;;2.80;;
34204;SDS011;20471;49.680;20.074;2023-04-01T09:43:39;3.60;;;1.80;;
34204;SDS011;20471;49.680;20.074;2023-04-01T09:46:50;2.40;;;1.40;;
34204;SDS011;20471;49.680;20.074;2023-04-01T09:49:40;5.40;;;2.50;;
34204;SDS011;20471;49.680;20.074;2023-04-01T09:52:36;4.80;;;2.40;;
34204;SDS011;20471;49.680;20.074;2023-04-01T10:01:10;4.50;;;2.00;;
34204;SDS011;20471;49.680;20.074;2023-04-01T10:03:54;4.40;;;2.20;;
34204;SDS011;20471;49.680;20.074;2023-04-01T10:06:50;4.30;;;2.00;;
34204;SDS011;20471;49.680;20.074;2023-04-01T10:43:57;3.00;;;1.90;;
34204;SDS011;20471;49.680;20.074;2023-04-01T11:00:49;3.20;;;2.00;;
34204;SDS011;20471;49.680;20.074;2023-04-01T11:34:55;2.60;;;1.60;;
34204;SDS011;20471;49.680;20.074;2023-04-01T11:37:37;2.00;;;1.60;;
34204;SDS011;20471;49.680;20.074;2023-04-01T11:40:37;2.70;;;1.80;;
34204;SDS011;20471;49.680;20.074;2023-04-01T11:43:24;2.50;;;1.80;;
34204;SDS011;20471;49.680;20.074;2023-04-01T11:46:05;3.60;;;2.10;;
34204;SDS011;20471;49.680;20.074;2023-04-01T11:55:01;2.40;;;1.90;;
34204;SDS011;20471;49.680;20.074;2023-04-01T12:00:38;2.60;;;1.80;;
34204;SDS011;20471;49.680;20.074;2023-04-01T12:08:57;2.80;;;1.70;;
34204;SDS011;20471;49.680;20.074;2023-04-01T12:11:48;1.80;;;1.60;;
34204;SDS011;20471;49.680;20.074;2023-04-01T12:14:34;2.40;;;1.80;;
34204;SDS011;20471;49.680;20.074;2023-04-01T12:17:26;3.00;;;1.80;;
34204;SDS011;20471;49.680;20.074;2023-04-01T12:34:48;2.00;;;1.60;;
34204;SDS011;20471;49.680;20.074;2023-04-01T12:40:18;3.40;;;2.00;;
34204;SDS011;20471;49.680;20.074;2023-04-01T12:45:32;1.60;;;1.50;;
34204;SDS011;20471;49.680;20.074;2023-04-01T12:48:23;2.40;;;1.60;;
34204;SDS011;20471;49.680;20.074;2023-04-01T12:56:20;2.60;;;1.60;;
34204;SDS011;20471;49.680;20.074;2023-04-01T13:10:50;1.20;;;1.00;;
34204;SDS011;20471;49.680;20.074;2023-04-01T13:16:16;1.60;;;1.20;;
34204;SDS011;20471;49.680;20.074;2023-04-01T13:19:03;1.90;;;1.20;;
34204;SDS011;20471;49.680;20.074;2023-04-01T13:35:08;7.60;;;1.20;;
34204;SDS011;20471;49.680;20.074;2023-04-01T13:45:57;3.70;;;2.70;;
34204;SDS011;20471;49.680;20.074;2023-04-01T13:51:10;1.40;;;1.20;;
34204;SDS011;20471;49.680;20.074;2023-04-01T13:59:05;0.80;;;0.70;;
34204;SDS011;20471;49.680;20.074;2023-04-01T14:01:55;1.30;;;1.00;;
34204;SDS011;20471;49.680;20.074;2023-04-01T14:04:31;1.70;;;1.50;;
34204;SDS011;20471;49.680;20.074;2023-04-01T14:07:50;1.30;;;1.10;;
34204;SDS011;20471;49.680;20.074;2023-04-01T14:13:41;2.20;;;1.60;;
34204;SDS011;20471;49.680;20.074;2023-04-01T14:19:24;3.40;;;2.50;;
34204;SDS011;20471;49.680;20.074;2023-04-01T14:42:11;2.80;;;1.90;;
34204;SDS011;20471;49.680;20.074;2023-04-01T14:47:56;12.80;;;6.70;;
34204;SDS011;20471;49.680;20.074;2023-04-01T14:50:45;44.10;;;22.10;;
34204;SDS011;20471;49.680;20.074;2023-04-01T14:55:56;25.30;;;12.90;;
34204;SDS011;20471;49.680;20.074;2023-04-01T14:58:49;6.10;;;3.50;;
34204;SDS011;20471;49.680;20.074;2023-04-01T15:09:55;8.30;;;4.20;;
34204;SDS011;20471;49.680;20.074;2023-04-01T15:15:10;6.30;;;4.40;;
34204;SDS011;20471;49.680;20.074;2023-04-01T15:23:40;4.40;;;3.40;;
34204;SDS011;20471;49.680;20.074;2023-04-01T15:35:17;2.80;;;2.20;;
34204;SDS011;20471;49.680;20.074;2023-04-01T15:37:57;6.50;;;2.50;;
34204;SDS011;20471;49.680;20.074;2023-04-01T15:43:46;2.60;;;2.00;;
34204;SDS011;20471;49.680;20.074;2023-04-01T15:49:01;5.30;;;3.60;;
34204;SDS011;20471;49.680;20.074;2023-04-01T16:00:30;14.70;;;9.20;;
34204;SDS011;20471;49.680;20.074;2023-04-01T16:14:53;5.20;;;3.50;;
34204;SDS011;20471;49.680;20.074;2023-04-01T16:20:19;6.20;;;3.60;;
34204;SDS011;20471;49.680;20.074;2023-04-01T16:22:57;5.10;;;3.60;;
34204;SDS011;20471;49.680;20.074;2023-04-01T16:25:36;7.40;;;4.70;;
34204;SDS011;20471;49.680;20.074;2023-04-01T16:34:11;7.50;;;5.10;;
34204;SDS011;20471;49.680;20.074;2023-04-01T16:40:16;8.20;;;5.60;;
34204;SDS011;20471;49.680;20.074;2023-04-01T16:43:10;8.50;;;5.40;;
34204;SDS011;20471;49.680;20.074;2023-04-01T16:46:12;10.10;;;6.30;;
34204;SDS011;20471;49.680;20.074;2023-04-01T16:56:50;5.10;;;3.90;;
34204;SDS011;20471;49.680;20.074;2023-04-01T16:59:33;11.00;;;6.10;;
34204;SDS011;20471;49.680;20.074;2023-04-01T17:02:08;22.30;;;10.40;;
34204;SDS011;20471;49.680;20.074;2023-04-01T17:04:45;15.00;;;8.40;;
34204;SDS011;20471;49.680;20.074;2023-04-01T17:10:33;9.80;;;6.20;;
34204;SDS011;20471;49.680;20.074;2023-04-01T17:13:33;12.40;;;6.40;;
34204;SDS011;20471;49.680;20.074;2023-04-01T17:16:10;11.30;;;7.20;;
34204;SDS011;20471;49.680;20.074;2023-04-01T17:19:12;12.90;;;9.50;;
34204;SDS011;20471;49.680;20.074;2023-04-01T17:33:29;82.60;;;36.60;;
34204;SDS011;20471;49.680;20.074;2023-04-01T17:36:14;92.50;;;37.80;;
34204;SDS011;20471;49.680;20.074;2023-04-01T17:41:57;28.30;;;17.00;;
34204;SDS011;20471;49.680;20.074;2023-04-01T17:49:49;13.10;;;7.70;;
34204;SDS011;20471;49.680;20.074;2023-04-01T17:55:32;22.30;;;11.70;;
34204;SDS011;20471;49.680;20.074;2023-04-01T17:58:03;12.30;;;7.10;;
34204;SDS011;20471;49.680;20.074;2023-04-01T18:01:09;8.40;;;4.70;;
34204;SDS011;20471;49.680;20.074;2023-04-01T18:04:17;8.70;;;5.60;;
34204;SDS011;20471;49.680;20.074;2023-04-01T18:21:45;4.20;;;3.20;;
34204;SDS011;20471;49.680;20.074;2023-04-01T18:27:29;4.30;;;3.60;;
34204;SDS011;20471;49.680;20.074;2023-04-01T18:35:48;4.70;;;3.70;;
34204;SDS011;20471;49.680;20.074;2023-04-01T18:38:29;4.60;;;3.80;;
34204;SDS011;20471;49.680;20.074;2023-04-01T18:46:39;5.40;;;4.60;;
34204;SDS011;20471;49.680;20.074;2023-04-01T18:49:28;5.80;;;3.90;;
34204;SDS011;20471;49.680;20.074;2023-04-01T18:57:48;10.90;;;8.20;;
34204;SDS011;20471;49.680;20.074;2023-04-01T19:00:21;13.90;;;9.70;;
34204;SDS011;20471;49.680;20.074;2023-04-01T19:03:20;17.10;;;10.60;;
34204;SDS011;20471;49.680;20.074;2023-04-01T19:05:52;20.10;;;12.60;;
34204;SDS011;20471;49.680;20.074;2023-04-01T19:08:34;24.10;;;14.70;;
34204;SDS011;20471;49.680;20.074;2023-04-01T19:11:09;21.00;;;12.80;;
34204;SDS011;20471;49.680;20.074;2023-04-01T19:22:44;39.50;;;29.70;;
34204;SDS011;20471;49.680;20.074;2023-04-01T19:34:25;56.30;;;30.50;;
34204;SDS011;20471;49.680;20.074;2023-04-01T19:37:02;50.10;;;28.20;;
34204;SDS011;20471;49.680;20.074;2023-04-01T19:42:29;39.40;;;24.00;;
34204;SDS011;20471;49.680;20.074;2023-04-01T19:48:16;45.50;;;26.60;;
34204;SDS011;20471;49.680;20.074;2023-04-01T19:50:57;54.70;;;29.50;;
34204;SDS011;20471;49.680;20.074;2023-04-01T19:53:49;66.70;;;35.70;;
34204;SDS011;20471;49.680;20.074;2023-04-01T19:56:23;108.90;;;44.50;;
34204;SDS011;20471;49.680;20.074;2023-04-01T19:59:04;176.80;;;63.70;;
34204;SDS011;20471;49.680;20.074;2023-04-01T20:04:17;57.00;;;31.20;;
34204;SDS011;20471;49.680;20.074;2023-04-01T20:06:55;46.60;;;27.10;;
34204;SDS011;20471;49.680;20.074;2023-04-01T20:09:38;40.20;;;25.00;;
34204;SDS011;20471;49.680;20.074;2023-04-01T20:12:22;33.90;;;21.50;;
34204;SDS011;20471;49.680;20.074;2023-04-01T20:15:21;31.20;;;19.50;;
34204;SDS011;20471;49.680;20.074;2023-04-01T20:24:07;19.30;;;13.80;;
34204;SDS011;20471;49.680;20.074;2023-04-01T20:26:44;22.10;;;13.80;;
34204;SDS011;20471;49.680;20.074;2023-04-01T20:29:35;19.80;;;13.60;;
34204;SDS011;20471;49.680;20.074;2023-04-01T20:32:18;18.70;;;11.70;;
34204;SDS011;20471;49.680;20.074;2023-04-01T20:38:17;16.90;;;11.50;;
34204;SDS011;20471;49.680;20.074;2023-04-01T20:41:07;19.50;;;12.40;;
34204;SDS011;20471;49.680;20.074;2023-04-01T20:44:01;17.50;;;12.30;;
34204;SDS011;20471;49.680;20.074;2023-04-01T20:49:47;19.30;;;12.30;;
34204;SDS011;20471;49.680;20.074;2023-04-01T21:01:33;21.50;;;12.60;;
34204;SDS011;20471;49.680;20.074;2023-04-01T21:12:47;18.40;;;11.80;;
34204;SDS011;20471;49.680;20.074;2023-04-01T21:15:32;17.70;;;11.50;;
34204;SDS011;20471;49.680;20.074;2023-04-01T21:18:34;16.20;;;11.50;;
34204;SDS011;20471;49.680;20.074;2023-04-01T21:32:12;14.90;;;11.20;;
34204;SDS011;20471;49.680;20.074;2023-04-01T21:38:17;16.00;;;11.20;;
34204;SDS011;20471;49.680;20.074;2023-04-01T21:41:31;17.30;;;11.60;;
34204;SDS011;20471;49.680;20.074;2023-04-01T21:50:18;17.40;;;11.30;;
34204;SDS011;20471;49.680;20.074;2023-04-01T21:53:21;19.50;;;13.50;;
34204;SDS011;20471;49.680;20.074;2023-04-01T21:59:24;20.60;;;13.00;;
34204;SDS011;20471;49.680;20.074;2023-04-01T22:08:20;16.90;;;11.50;;
34204;SDS011;20471;49.680;20.074;2023-04-01T22:17:09;18.50;;;12.90;;
34204;SDS011;20471;49.680;20.074;2023-04-01T22:19:59;21.10;;;12.60;;
34204;SDS011;20471;49.680;20.074;2023-04-01T22:25:54;18.90;;;12.70;;
34204;SDS011;20471;49.680;20.074;2023-04-01T22:28:54;18.80;;;12.50;;
34204;SDS011;20471;49.680;20.074;2023-04-01T22:31:28;18.30;;;12.20;;
34204;SDS011;20471;49.680;20.074;2023-04-01T22:36:53;18.00;;;13.20;;
34204;SDS011;20471;49.680;20.074;2023-04-01T22:39:26;20.60;;;13.10;;
34204;SDS011;20471;49.680;20.074;2023-04-01T22:44:38;18.60;;;12.90;;
34204;SDS011;20471;49.680;20.074;2023-04-01T22:47:25;19.90;;;12.40;;
34204;SDS011;20471;49.680;20.074;2023-04-01T22:50:21;16.40;;;12.60;;
34204;SDS011;20471;49.680;20.074;2023-04-01T22:53:07;23.00;;;13.60;;
34204;SDS011;20471;49.680;20.074;2023-04-01T22:55:49;20.00;;;13.50;;
34204;SDS011;20471;49.680;20.074;2023-04-01T22:58:30;19.20;;;13.40;;
34204;SDS011;20471;49.680;20.074;2023-04-01T23:01:05;23.20;;;14.80;;
34204;SDS011;20471;49.680;20.074;2023-04-01T23:03:39;19.70;;;14.30;;
34204;SDS011;20471;49.680;20.074;2023-04-01T23:06:14;21.60;;;15.00;;
34204;SDS011;20471;49.680;20.074;2023-04-01T23:08:53;21.30;;;14.30;;
34204;SDS011;20471;49.680;20.074;2023-04-01T23:11:57;18.90;;;13.90;;
34204;SDS011;20471;49.680;20.074;2023-04-01T23:17:24;18.60;;;12.50;;
34204;SDS011;20471;49.680;20.074;2023-04-01T23:26:06;19.70;;;13.70;;
34204;SDS011;20471;49.680;20.074;2023-04-01T23:28:44;21.20;;;14.70;;
34204;SDS011;20471;49.680;20.074;2023-04-01T23:36:51;18.70;;;13.80;;
34204;SDS011;20471;49.680;20.074;2023-04-01T23:39:24;19.20;;;14.70;;
34204;SDS011;20471;49.680;20.074;2023-04-01T23:42:03;22.30;;;16.10;;
34204;SDS011;20471;49.680;20.074;2023-04-01T23:44:35;25.10;;;16.30;;
34204;SDS011;20471;49.680;20.074;2023-04-01T23:47:04;24.00;;;18.00;;
34204;SDS011;20471;49.680;20.074;2023-04-01T23:49:38;22.10;;;17.10;;
34204;SDS011;20471;49.680;20.074;2023-04-01T23:55:03;21.80;;;15.90;;
34204;SDS011;20471;49.680;20.074;2023-04-01T23:57:38;21.70;;;16.00;;
